sensor_id;sensor_type;location;lat;lon;timestamp;P1;durP1;ratioP1;P2;durP2;ratioP2
72813;SDS011;60945;48.516;-2.768;2023-04-23T00:00:59;8.27;;;2.47;;
72813;SDS011;60945;48.516;-2.768;2023-04-23T00:03:28;7.78;;;2.30;;
72813;SDS011;60945;48.516;-2.768;2023-04-23T00:05:57;11.77;;;2.55;;
72813;SDS011;60945;48.516;-2.768;2023-04-23T00:08:23;10.32;;;2.53;;
72813;SDS011;60945;48.516;-2.768;2023-04-23T00:10:50;9.98;;;2.60;;
72813;SDS011;60945;48.516;-2.768;2023-04-23T00:13:16;12.05;;;3.00;;
72813;SDS011;60945;48.516;-2.768;2023-04-23T00:15:42;13.18;;;3.20;;
72813;SDS011;60945;48.516;-2.768;2023-04-23T00:18:08;8.98;;;3.15;;
72813;SDS011;60945;48.516;-2.768;2023-04-23T00:20:34;10.45;;;2.75;;
72813;SDS011;60945;48.516;-2.768;2023-04-23T00:23:00;10.25;;;3.45;;
72813;SDS011;60945;48.516;-2.768;2023-04-23T00:25:26;13.00;;;2.72;;
72813;SDS011;60945;48.516;-2.768;2023-04-23T00:27:52;13.52;;;2.55;;
72813;SDS011;60945;48.516;-2.768;2023-04-23T00:30:17;14.93;;;3.03;;
72813;SDS011;60945;48.516;-2.768;2023-04-23T00:32:43;13.20;;;2.40;;
72813;SDS011;60945;48.516;-2.768;2023-04-23T00:35:09;10.15;;;3.08;;
72813;SDS011;60945;48.516;-2.768;2023-04-23T00:37:35;16.63;;;3.40;;
72813;SDS011;60945;48.516;-2.768;2023-04-23T00:40:01;14.30;;;2.88;;
72813;SDS011;60945;48.516;-2.768;2023-04-23T00:42:27;8.18;;;2.13;;
72813;SDS011;60945;48.516;-2.768;2023-04-23T00:44:53;11.38;;;2.53;;
72813;SDS011;60945;48.516;-2.768;2023-04-23T00:47:19;12.63;;;3.17;;
72813;SDS011;60945;48.516;-2.768;2023-04-23T00:49:49;13.60;;;3.40;;
72813;SDS011;60945;48.516;-2.768;2023-04-23T00:52:15;12.18;;;2.90;;
72813;SDS011;60945;48.516;-2.768;2023-04-23T00:54:41;14.23;;;3.17;;
72813;SDS011;60945;48.516;-2.768;2023-04-23T00:57:07;15.63;;;2.53;;
72813;SDS011;60945;48.516;-2.768;2023-04-23T00:59:33;17.27;;;3.05;;
72813;SDS011;60945;48.516;-2.768;2023-04-23T01:01:59;15.18;;;2.42;;
72813;SDS011;60945;48.516;-2.768;2023-04-23T01:04:26;10.30;;;2.30;;
72813;SDS011;60945;48.516;-2.768;2023-04-23T01:06:55;11.73;;;2.83;;
72813;SDS011;60945;48.516;-2.768;2023-04-23T01:09:21;14.63;;;2.78;;
72813;SDS011;60945;48.516;-2.768;2023-04-23T01:11:48;9.40;;;2.20;;
72813;SDS011;60945;48.516;-2.768;2023-04-23T01:14:15;11.88;;;3.20;;
72813;SDS011;60945;48.516;-2.768;2023-04-23T01:16:41;15.25;;;2.63;;
72813;SDS011;60945;48.516;-2.768;2023-04-23T01:19:07;8.02;;;2.55;;
72813;SDS011;60945;48.516;-2.768;2023-04-23T01:21:34;15.82;;;2.90;;
72813;SDS011;60945;48.516;-2.768;2023-04-23T01:24:02;8.82;;;2.38;;
72813;SDS011;60945;48.516;-2.768;2023-04-23T01:26:28;11.48;;;3.22;;
72813;SDS011;60945;48.516;-2.768;2023-04-23T01:28:54;14.27;;;2.63;;
72813;SDS011;60945;48.516;-2.768;2023-04-23T01:31:20;12.02;;;2.60;;
72813;SDS011;60945;48.516;-2.768;2023-04-23T01:33:49;10.88;;;2.55;;
72813;SDS011;60945;48.516;-2.768;2023-04-23T01:36:16;11.65;;;3.15;;
72813;SDS011;60945;48.516;-2.768;2023-04-23T01:38:43;10.15;;;3.05;;
72813;SDS011;60945;48.516;-2.768;2023-04-23T01:41:09;9.10;;;2.25;;
72813;SDS011;60945;48.516;-2.768;2023-04-23T01:43:34;8.23;;;2.13;;
72813;SDS011;60945;48.516;-2.768;2023-04-23T01:46:01;12.35;;;2.35;;
72813;SDS011;60945;48.516;-2.768;2023-04-23T01:48:27;17.15;;;2.35;;
72813;SDS011;60945;48.516;-2.768;2023-04-23T01:50:52;7.82;;;2.00;;
72813;SDS011;60945;48.516;-2.768;2023-04-23T01:53:18;9.50;;;2.60;;
72813;SDS011;60945;48.516;-2.768;2023-04-23T01:55:44;10.35;;;2.30;;
72813;SDS011;60945;48.516;-2.768;2023-04-23T01:58:12;10.02;;;2.55;;
72813;SDS011;60945;48.516;-2.768;2023-04-23T02:00:38;10.63;;;2.45;;
72813;SDS011;60945;48.516;-2.768;2023-04-23T02:03:04;11.25;;;2.47;;
72813;SDS011;60945;48.516;-2.768;2023-04-23T02:05:29;14.48;;;2.75;;
72813;SDS011;60945;48.516;-2.768;2023-04-23T02:07:58;9.32;;;2.85;;
72813;SDS011;60945;48.516;-2.768;2023-04-23T02:10:24;12.52;;;2.42;;
72813;SDS011;60945;48.516;-2.768;2023-04-23T02:12:50;10.32;;;2.65;;
72813;SDS011;60945;48.516;-2.768;2023-04-23T02:15:15;8.48;;;2.55;;
72813;SDS011;60945;48.516;-2.768;2023-04-23T02:17:41;11.55;;;3.33;;
72813;SDS011;60945;48.516;-2.768;2023-04-23T02:20:07;8.25;;;2.65;;
72813;SDS011;60945;48.516;-2.768;2023-04-23T02:22:35;10.45;;;2.22;;
72813;SDS011;60945;48.516;-2.768;2023-04-23T02:25:05;10.40;;;2.60;;
72813;SDS011;60945;48.516;-2.768;2023-04-23T02:27:32;11.05;;;3.97;;
72813;SDS011;60945;48.516;-2.768;2023-04-23T02:29:58;8.38;;;2.35;;
72813;SDS011;60945;48.516;-2.768;2023-04-23T02:32:24;13.70;;;2.53;;
72813;SDS011;60945;48.516;-2.768;2023-04-23T02:34:50;8.55;;;2.75;;
72813;SDS011;60945;48.516;-2.768;2023-04-23T02:37:16;9.82;;;2.30;;
72813;SDS011;60945;48.516;-2.768;2023-04-23T02:39:41;12.23;;;3.13;;
72813;SDS011;60945;48.516;-2.768;2023-04-23T02:42:07;9.50;;;2.42;;
72813;SDS011;60945;48.516;-2.768;2023-04-23T02:44:33;11.40;;;2.47;;
72813;SDS011;60945;48.516;-2.768;2023-04-23T02:46:58;13.48;;;2.63;;
72813;SDS011;60945;48.516;-2.768;2023-04-23T02:49:24;7.72;;;1.42;;
72813;SDS011;60945;48.516;-2.768;2023-04-23T02:51:50;4.70;;;1.05;;
72813;SDS011;60945;48.516;-2.768;2023-04-23T02:54:16;6.70;;;1.60;;
72813;SDS011;60945;48.516;-2.768;2023-04-23T02:56:42;5.97;;;1.45;;
72813;SDS011;60945;48.516;-2.768;2023-04-23T02:59:07;7.00;;;1.60;;
72813;SDS011;60945;48.516;-2.768;2023-04-23T03:01:35;7.40;;;1.17;;
72813;SDS011;60945;48.516;-2.768;2023-04-23T03:04:01;6.18;;;1.15;;
72813;SDS011;60945;48.516;-2.768;2023-04-23T03:06:27;5.47;;;1.13;;
72813;SDS011;60945;48.516;-2.768;2023-04-23T03:08:58;5.10;;;1.30;;
72813;SDS011;60945;48.516;-2.768;2023-04-23T03:11:24;5.10;;;1.60;;
72813;SDS011;60945;48.516;-2.768;2023-04-23T03:13:49;7.00;;;1.45;;
72813;SDS011;60945;48.516;-2.768;2023-04-23T03:16:15;2.50;;;0.90;;
72813;SDS011;60945;48.516;-2.768;2023-04-23T03:18:41;4.20;;;1.42;;
72813;SDS011;60945;48.516;-2.768;2023-04-23T03:21:06;9.00;;;1.35;;
72813;SDS011;60945;48.516;-2.768;2023-04-23T03:23:32;3.92;;;0.80;;
72813;SDS011;60945;48.516;-2.768;2023-04-23T03:25:58;5.70;;;1.38;;
72813;SDS011;60945;48.516;-2.768;2023-04-23T03:28:23;4.10;;;1.10;;
72813;SDS011;60945;48.516;-2.768;2023-04-23T03:30:49;4.50;;;1.02;;
72813;SDS011;60945;48.516;-2.768;2023-04-23T03:33:14;1.92;;;0.70;;
72813;SDS011;60945;48.516;-2.768;2023-04-23T03:35:40;1.60;;;0.60;;
72813;SDS011;60945;48.516;-2.768;2023-04-23T03:38:06;2.67;;;0.90;;
72813;SDS011;60945;48.516;-2.768;2023-04-23T03:40:31;4.68;;;1.10;;
72813;SDS011;60945;48.516;-2.768;2023-04-23T03:42:57;3.22;;;0.70;;
72813;SDS011;60945;48.516;-2.768;2023-04-23T03:45:23;3.97;;;0.80;;
72813;SDS011;60945;48.516;-2.768;2023-04-23T03:47:49;2.65;;;0.60;;
72813;SDS011;60945;48.516;-2.768;2023-04-23T03:50:15;1.55;;;0.52;;
72813;SDS011;60945;48.516;-2.768;2023-04-23T03:52:41;6.93;;;1.00;;
72813;SDS011;60945;48.516;-2.768;2023-04-23T03:55:07;2.80;;;0.82;;
72813;SDS011;60945;48.516;-2.768;2023-04-23T03:57:34;3.33;;;1.05;;
72813;SDS011;60945;48.516;-2.768;2023-04-23T04:00:00;3.42;;;0.60;;
72813;SDS011;60945;48.516;-2.768;2023-04-23T04:02:27;1.38;;;0.63;;
72813;SDS011;60945;48.516;-2.768;2023-04-23T04:04:53;3.45;;;0.70;;
72813;SDS011;60945;48.516;-2.768;2023-04-23T04:07:19;4.03;;;0.80;;
72813;SDS011;60945;48.516;-2.768;2023-04-23T04:09:48;4.15;;;0.93;;
72813;SDS011;60945;48.516;-2.768;2023-04-23T04:12:14;3.70;;;0.82;;
72813;SDS011;60945;48.516;-2.768;2023-04-23T04:14:40;3.45;;;0.95;;
72813;SDS011;60945;48.516;-2.768;2023-04-23T04:17:06;5.47;;;0.65;;
72813;SDS011;60945;48.516;-2.768;2023-04-23T04:19:33;2.55;;;0.50;;
72813;SDS011;60945;48.516;-2.768;2023-04-23T04:21:58;3.45;;;1.38;;
72813;SDS011;60945;48.516;-2.768;2023-04-23T04:24:26;1.75;;;0.55;;
72813;SDS011;60945;48.516;-2.768;2023-04-23T04:26:52;2.47;;;0.80;;
72813;SDS011;60945;48.516;-2.768;2023-04-23T04:29:18;3.70;;;0.80;;
72813;SDS011;60945;48.516;-2.768;2023-04-23T04:31:45;5.13;;;0.82;;
72813;SDS011;60945;48.516;-2.768;2023-04-23T04:34:11;3.67;;;0.80;;
72813;SDS011;60945;48.516;-2.768;2023-04-23T04:36:38;5.95;;;1.20;;
72813;SDS011;60945;48.516;-2.768;2023-04-23T04:39:05;4.22;;;1.13;;
72813;SDS011;60945;48.516;-2.768;2023-04-23T04:41:31;2.25;;;0.60;;
72813;SDS011;60945;48.516;-2.768;2023-04-23T04:43:57;3.17;;;0.60;;
72813;SDS011;60945;48.516;-2.768;2023-04-23T04:46:23;4.80;;;0.93;;
72813;SDS011;60945;48.516;-2.768;2023-04-23T04:48:50;5.47;;;0.82;;
72813;SDS011;60945;48.516;-2.768;2023-04-23T04:51:16;8.13;;;0.98;;
72813;SDS011;60945;48.516;-2.768;2023-04-23T04:53:41;2.42;;;1.00;;
72813;SDS011;60945;48.516;-2.768;2023-04-23T04:56:07;1.67;;;0.80;;
72813;SDS011;60945;48.516;-2.768;2023-04-23T04:58:33;1.35;;;0.68;;
72813;SDS011;60945;48.516;-2.768;2023-04-23T05:00:59;4.00;;;1.10;;
72813;SDS011;60945;48.516;-2.768;2023-04-23T05:03:25;7.63;;;0.93;;
72813;SDS011;60945;48.516;-2.768;2023-04-23T05:05:51;1.60;;;0.68;;
72813;SDS011;60945;48.516;-2.768;2023-04-23T05:08:20;2.88;;;0.80;;
72813;SDS011;60945;48.516;-2.768;2023-04-23T05:10:46;2.40;;;0.60;;
72813;SDS011;60945;48.516;-2.768;2023-04-23T05:13:14;1.20;;;0.77;;
72813;SDS011;60945;48.516;-2.768;2023-04-23T05:15:40;2.08;;;0.60;;
72813;SDS011;60945;48.516;-2.768;2023-04-23T05:18:06;2.85;;;0.90;;
72813;SDS011;60945;48.516;-2.768;2023-04-23T05:20:33;2.35;;;0.70;;
72813;SDS011;60945;48.516;-2.768;2023-04-23T05:22:59;2.08;;;0.60;;
72813;SDS011;60945;48.516;-2.768;2023-04-23T05:25:26;0.95;;;0.50;;
72813;SDS011;60945;48.516;-2.768;2023-04-23T05:27:52;2.90;;;0.75;;
72813;SDS011;60945;48.516;-2.768;2023-04-23T05:30:18;1.35;;;0.55;;
72813;SDS011;60945;48.516;-2.768;2023-04-23T05:32:44;1.90;;;0.57;;
72813;SDS011;60945;48.516;-2.768;2023-04-23T05:35:09;1.70;;;0.70;;
72813;SDS011;60945;48.516;-2.768;2023-04-23T05:37:35;2.47;;;0.90;;
72813;SDS011;60945;48.516;-2.768;2023-04-23T05:40:01;3.17;;;0.68;;
72813;SDS011;60945;48.516;-2.768;2023-04-23T05:42:27;2.75;;;0.60;;
72813;SDS011;60945;48.516;-2.768;2023-04-23T05:44:52;3.15;;;1.58;;
72813;SDS011;60945;48.516;-2.768;2023-04-23T05:47:18;2.80;;;0.60;;
72813;SDS011;60945;48.516;-2.768;2023-04-23T05:49:44;2.17;;;0.65;;
72813;SDS011;60945;48.516;-2.768;2023-04-23T05:52:10;2.45;;;0.60;;
72813;SDS011;60945;48.516;-2.768;2023-04-23T05:54:36;1.20;;;0.50;;
72813;SDS011;60945;48.516;-2.768;2023-04-23T05:57:01;3.15;;;0.57;;
72813;SDS011;60945;48.516;-2.768;2023-04-23T05:59:29;3.30;;;0.73;;
72813;SDS011;60945;48.516;-2.768;2023-04-23T06:01:55;3.60;;;0.60;;
72813;SDS011;60945;48.516;-2.768;2023-04-23T06:04:20;0.73;;;0.40;;
72813;SDS011;60945;48.516;-2.768;2023-04-23T06:06:46;0.43;;;0.30;;
72813;SDS011;60945;48.516;-2.768;2023-04-23T06:09:12;2.63;;;0.50;;
72813;SDS011;60945;48.516;-2.768;2023-04-23T06:11:37;2.30;;;0.52;;
72813;SDS011;60945;48.516;-2.768;2023-04-23T06:14:03;0.60;;;0.45;;
72813;SDS011;60945;48.516;-2.768;2023-04-23T06:16:29;1.75;;;0.40;;
72813;SDS011;60945;48.516;-2.768;2023-04-23T06:18:55;1.83;;;0.50;;
72813;SDS011;60945;48.516;-2.768;2023-04-23T06:21:21;1.55;;;0.40;;
72813;SDS011;60945;48.516;-2.768;2023-04-23T06:23:47;1.73;;;0.60;;
72813;SDS011;60945;48.516;-2.768;2023-04-23T06:26:13;2.13;;;0.43;;
72813;SDS011;60945;48.516;-2.768;2023-04-23T06:28:40;1.50;;;0.50;;
72813;SDS011;60945;48.516;-2.768;2023-04-23T06:31:07;1.05;;;0.40;;
72813;SDS011;60945;48.516;-2.768;2023-04-23T06:33:33;0.68;;;0.30;;
72813;SDS011;60945;48.516;-2.768;2023-04-23T06:36:00;1.58;;;0.40;;
72813;SDS011;60945;48.516;-2.768;2023-04-23T06:38:26;0.85;;;0.40;;
72813;SDS011;60945;48.516;-2.768;2023-04-23T06:40:51;4.40;;;0.30;;
72813;SDS011;60945;48.516;-2.768;2023-04-23T06:43:17;1.90;;;0.40;;
72813;SDS011;60945;48.516;-2.768;2023-04-23T06:45:43;1.15;;;0.30;;
72813;SDS011;60945;48.516;-2.768;2023-04-23T06:48:08;0.68;;;0.40;;
72813;SDS011;60945;48.516;-2.768;2023-04-23T06:50:34;0.65;;;0.40;;
72813;SDS011;60945;48.516;-2.768;2023-04-23T06:53:00;1.95;;;0.50;;
72813;SDS011;60945;48.516;-2.768;2023-04-23T06:55:26;1.27;;;0.52;;
72813;SDS011;60945;48.516;-2.768;2023-04-23T06:57:53;0.85;;;0.40;;
72813;SDS011;60945;48.516;-2.768;2023-04-23T07:00:19;0.63;;;0.40;;
72813;SDS011;60945;48.516;-2.768;2023-04-23T07:02:48;0.45;;;0.32;;
72813;SDS011;60945;48.516;-2.768;2023-04-23T07:05:15;0.90;;;0.40;;
72813;SDS011;60945;48.516;-2.768;2023-04-23T07:07:41;0.55;;;0.40;;
72813;SDS011;60945;48.516;-2.768;2023-04-23T07:10:08;0.90;;;0.40;;
72813;SDS011;60945;48.516;-2.768;2023-04-23T07:12:37;3.10;;;0.80;;
72813;SDS011;60945;48.516;-2.768;2023-04-23T07:15:04;2.25;;;0.60;;
72813;SDS011;60945;48.516;-2.768;2023-04-23T07:17:30;4.20;;;0.80;;
72813;SDS011;60945;48.516;-2.768;2023-04-23T07:19:56;2.80;;;0.70;;
72813;SDS011;60945;48.516;-2.768;2023-04-23T07:22:22;1.40;;;0.60;;
72813;SDS011;60945;48.516;-2.768;2023-04-23T07:24:49;1.13;;;0.47;;
72813;SDS011;60945;48.516;-2.768;2023-04-23T07:27:15;1.05;;;0.50;;
72813;SDS011;60945;48.516;-2.768;2023-04-23T07:29:44;1.45;;;0.50;;
72813;SDS011;60945;48.516;-2.768;2023-04-23T07:32:09;4.15;;;0.77;;
72813;SDS011;60945;48.516;-2.768;2023-04-23T07:34:35;1.27;;;0.70;;
72813;SDS011;60945;48.516;-2.768;2023-04-23T07:37:01;2.15;;;1.00;;
72813;SDS011;60945;48.516;-2.768;2023-04-23T07:39:27;0.68;;;0.50;;
72813;SDS011;60945;48.516;-2.768;2023-04-23T07:41:53;0.98;;;0.60;;
72813;SDS011;60945;48.516;-2.768;2023-04-23T07:44:20;1.40;;;0.43;;
72813;SDS011;60945;48.516;-2.768;2023-04-23T07:46:46;1.73;;;0.60;;
72813;SDS011;60945;48.516;-2.768;2023-04-23T07:49:12;1.05;;;0.50;;
72813;SDS011;60945;48.516;-2.768;2023-04-23T07:51:38;1.30;;;0.40;;
72813;SDS011;60945;48.516;-2.768;2023-04-23T07:54:03;1.50;;;0.52;;
72813;SDS011;60945;48.516;-2.768;2023-04-23T07:56:29;1.48;;;0.50;;
72813;SDS011;60945;48.516;-2.768;2023-04-23T07:58:56;1.65;;;0.70;;
72813;SDS011;60945;48.516;-2.768;2023-04-23T08:01:25;2.42;;;0.60;;
72813;SDS011;60945;48.516;-2.768;2023-04-23T08:03:51;1.63;;;0.50;;
72813;SDS011;60945;48.516;-2.768;2023-04-23T08:06:16;0.68;;;0.45;;
72813;SDS011;60945;48.516;-2.768;2023-04-23T08:08:43;0.50;;;0.38;;
72813;SDS011;60945;48.516;-2.768;2023-04-23T08:11:09;1.30;;;0.68;;
72813;SDS011;60945;48.516;-2.768;2023-04-23T08:13:35;2.17;;;0.63;;
72813;SDS011;60945;48.516;-2.768;2023-04-23T08:16:01;3.15;;;0.50;;
72813;SDS011;60945;48.516;-2.768;2023-04-23T08:18:27;1.27;;;0.75;;
72813;SDS011;60945;48.516;-2.768;2023-04-23T08:20:52;1.88;;;0.50;;
72813;SDS011;60945;48.516;-2.768;2023-04-23T08:23:21;2.50;;;0.63;;
72813;SDS011;60945;48.516;-2.768;2023-04-23T08:25:47;1.55;;;0.50;;
72813;SDS011;60945;48.516;-2.768;2023-04-23T08:28:12;1.90;;;0.80;;
72813;SDS011;60945;48.516;-2.768;2023-04-23T08:30:38;2.17;;;0.80;;
72813;SDS011;60945;48.516;-2.768;2023-04-23T08:33:04;1.20;;;0.52;;
72813;SDS011;60945;48.516;-2.768;2023-04-23T08:35:29;0.73;;;0.40;;
72813;SDS011;60945;48.516;-2.768;2023-04-23T08:37:55;1.45;;;0.60;;
72813;SDS011;60945;48.516;-2.768;2023-04-23T08:40:21;1.60;;;0.70;;
72813;SDS011;60945;48.516;-2.768;2023-04-23T08:47:45;1.80;;;0.80;;
72813;SDS011;60945;48.516;-2.768;2023-04-23T08:50:12;2.58;;;0.68;;
72813;SDS011;60945;48.516;-2.768;2023-04-23T08:52:39;2.75;;;0.95;;
72813;SDS011;60945;48.516;-2.768;2023-04-23T08:55:07;3.45;;;1.00;;
72813;SDS011;60945;48.516;-2.768;2023-04-23T08:57:38;2.78;;;0.80;;
72813;SDS011;60945;48.516;-2.768;2023-04-23T09:00:06;1.60;;;0.65;;
72813;SDS011;60945;48.516;-2.768;2023-04-23T09:02:39;2.42;;;0.80;;
72813;SDS011;60945;48.516;-2.768;2023-04-23T09:05:05;1.77;;;0.65;;
72813;SDS011;60945;48.516;-2.768;2023-04-23T09:07:32;1.38;;;0.73;;
72813;SDS011;60945;48.516;-2.768;2023-04-23T09:09:59;1.88;;;0.52;;
72813;SDS011;60945;48.516;-2.768;2023-04-23T09:12:29;1.15;;;0.60;;
72813;SDS011;60945;48.516;-2.768;2023-04-23T09:14:55;1.88;;;0.80;;
72813;SDS011;60945;48.516;-2.768;2023-04-23T09:17:23;2.03;;;0.70;;
72813;SDS011;60945;48.516;-2.768;2023-04-23T09:19:53;1.42;;;0.70;;
72813;SDS011;60945;48.516;-2.768;2023-04-23T09:25:04;0.50;;;0.50;;
72813;SDS011;60945;48.516;-2.768;2023-04-23T09:27:31;2.60;;;0.65;;
72813;SDS011;60945;48.516;-2.768;2023-04-23T09:29:58;3.17;;;1.45;;
72813;SDS011;60945;48.516;-2.768;2023-04-23T09:32:30;2.72;;;0.60;;
72813;SDS011;60945;48.516;-2.768;2023-04-23T09:34:57;1.63;;;0.70;;
72813;SDS011;60945;48.516;-2.768;2023-04-23T09:37:26;1.70;;;0.85;;
72813;SDS011;60945;48.516;-2.768;2023-04-23T09:39:52;3.30;;;0.70;;
72813;SDS011;60945;48.516;-2.768;2023-04-23T09:42:27;2.63;;;0.85;;
72813;SDS011;60945;48.516;-2.768;2023-04-23T09:44:58;2.03;;;0.70;;
72813;SDS011;60945;48.516;-2.768;2023-04-23T09:47:30;1.30;;;0.60;;
72813;SDS011;60945;48.516;-2.768;2023-04-23T09:49:57;1.20;;;0.70;;
72813;SDS011;60945;48.516;-2.768;2023-04-23T09:52:23;1.58;;;0.63;;
72813;SDS011;60945;48.516;-2.768;2023-04-23T09:54:49;1.00;;;0.60;;
72813;SDS011;60945;48.516;-2.768;2023-04-23T09:57:15;1.00;;;0.50;;
72813;SDS011;60945;48.516;-2.768;2023-04-23T09:59:40;0.77;;;0.55;;
72813;SDS011;60945;48.516;-2.768;2023-04-23T10:02:07;1.05;;;0.60;;
72813;SDS011;60945;48.516;-2.768;2023-04-23T10:04:33;1.02;;;0.60;;
72813;SDS011;60945;48.516;-2.768;2023-04-23T10:07:00;0.65;;;0.50;;
72813;SDS011;60945;48.516;-2.768;2023-04-23T10:09:27;1.65;;;0.40;;
72813;SDS011;60945;48.516;-2.768;2023-04-23T10:11:55;0.38;;;0.38;;
72813;SDS011;60945;48.516;-2.768;2023-04-23T10:14:23;0.35;;;0.30;;
72813;SDS011;60945;48.516;-2.768;2023-04-23T10:16:50;1.13;;;0.60;;
72813;SDS011;60945;48.516;-2.768;2023-04-23T10:19:21;0.73;;;0.40;;
72813;SDS011;60945;48.516;-2.768;2023-04-23T10:21:49;0.30;;;0.30;;
72813;SDS011;60945;48.516;-2.768;2023-04-23T10:24:23;0.52;;;0.30;;
72813;SDS011;60945;48.516;-2.768;2023-04-23T10:26:50;1.48;;;0.40;;
72813;SDS011;60945;48.516;-2.768;2023-04-23T10:29:18;0.88;;;0.38;;
72813;SDS011;60945;48.516;-2.768;2023-04-23T10:34:17;0.98;;;0.60;;
72813;SDS011;60945;48.516;-2.768;2023-04-23T10:36:43;1.40;;;0.90;;
72813;SDS011;60945;48.516;-2.768;2023-04-23T10:39:08;1.40;;;0.80;;
72813;SDS011;60945;48.516;-2.768;2023-04-23T10:41:39;2.35;;;1.05;;
72813;SDS011;60945;48.516;-2.768;2023-04-23T10:44:10;5.95;;;1.50;;
72813;SDS011;60945;48.516;-2.768;2023-04-23T10:46:37;2.13;;;1.38;;
72813;SDS011;60945;48.516;-2.768;2023-04-23T10:51:38;2.33;;;1.55;;
72813;SDS011;60945;48.516;-2.768;2023-04-23T10:54:07;2.95;;;2.03;;
72813;SDS011;60945;48.516;-2.768;2023-04-23T10:56:36;2.53;;;1.70;;
72813;SDS011;60945;48.516;-2.768;2023-04-23T10:59:04;2.90;;;1.85;;
72813;SDS011;60945;48.516;-2.768;2023-04-23T11:01:51;1.98;;;1.48;;
72813;SDS011;60945;48.516;-2.768;2023-04-23T11:04:23;3.08;;;1.80;;
72813;SDS011;60945;48.516;-2.768;2023-04-23T11:06:56;2.72;;;1.70;;
72813;SDS011;60945;48.516;-2.768;2023-04-23T11:09:47;3.03;;;1.80;;
72813;SDS011;60945;48.516;-2.768;2023-04-23T11:14:52;3.20;;;2.30;;
72813;SDS011;60945;48.516;-2.768;2023-04-23T11:18:03;3.15;;;2.00;;
72813;SDS011;60945;48.516;-2.768;2023-04-23T11:20:13;2.95;;;2.00;;
72813;SDS011;60945;48.516;-2.768;2023-04-23T11:22:42;3.60;;;2.47;;
72813;SDS011;60945;48.516;-2.768;2023-04-23T11:25:12;3.78;;;2.40;;
72813;SDS011;60945;48.516;-2.768;2023-04-23T11:27:38;3.88;;;2.70;;
72813;SDS011;60945;48.516;-2.768;2023-04-23T11:30:12;4.20;;;2.60;;
72813;SDS011;60945;48.516;-2.768;2023-04-23T11:32:39;4.70;;;2.95;;
72813;SDS011;60945;48.516;-2.768;2023-04-23T11:35:06;4.45;;;3.13;;
72813;SDS011;60945;48.516;-2.768;2023-04-23T11:37:37;4.43;;;2.83;;
72813;SDS011;60945;48.516;-2.768;2023-04-23T11:40:06;4.15;;;3.20;;
72813;SDS011;60945;48.516;-2.768;2023-04-23T11:42:41;5.75;;;3.70;;
72813;SDS011;60945;48.516;-2.768;2023-04-23T11:45:23;4.70;;;3.67;;
72813;SDS011;60945;48.516;-2.768;2023-04-23T11:47:51;6.10;;;3.22;;
72813;SDS011;60945;48.516;-2.768;2023-04-23T11:50:28;4.97;;;3.30;;
72813;SDS011;60945;48.516;-2.768;2023-04-23T11:52:56;4.47;;;3.60;;
72813;SDS011;60945;48.516;-2.768;2023-04-23T11:55:28;3.90;;;3.00;;
72813;SDS011;60945;48.516;-2.768;2023-04-23T11:57:53;4.88;;;3.30;;
72813;SDS011;60945;48.516;-2.768;2023-04-23T12:00:21;5.20;;;3.60;;
72813;SDS011;60945;48.516;-2.768;2023-04-23T12:02:52;4.93;;;3.78;;
72813;SDS011;60945;48.516;-2.768;2023-04-23T12:05:22;5.60;;;3.85;;
72813;SDS011;60945;48.516;-2.768;2023-04-23T12:08:10;7.72;;;3.83;;
72813;SDS011;60945;48.516;-2.768;2023-04-23T12:13:19;6.90;;;3.88;;
72813;SDS011;60945;48.516;-2.768;2023-04-23T12:18:17;4.95;;;4.40;;
72813;SDS011;60945;48.516;-2.768;2023-04-23T12:20:43;4.90;;;3.78;;
72813;SDS011;60945;48.516;-2.768;2023-04-23T12:23:10;4.60;;;4.10;;
72813;SDS011;60945;48.516;-2.768;2023-04-23T12:25:36;5.30;;;3.38;;
72813;SDS011;60945;48.516;-2.768;2023-04-23T12:28:05;4.88;;;3.95;;
72813;SDS011;60945;48.516;-2.768;2023-04-23T12:30:31;5.28;;;4.10;;
72813;SDS011;60945;48.516;-2.768;2023-04-23T12:33:01;3.92;;;3.40;;
72813;SDS011;60945;48.516;-2.768;2023-04-23T12:35:40;5.45;;;3.95;;
72813;SDS011;60945;48.516;-2.768;2023-04-23T12:38:22;4.30;;;3.85;;
72813;SDS011;60945;48.516;-2.768;2023-04-23T12:40:52;4.70;;;3.75;;
72813;SDS011;60945;48.516;-2.768;2023-04-23T12:43:19;5.72;;;4.15;;
72813;SDS011;60945;48.516;-2.768;2023-04-23T12:45:45;4.63;;;4.03;;
72813;SDS011;60945;48.516;-2.768;2023-04-23T12:48:11;4.97;;;3.92;;
72813;SDS011;60945;48.516;-2.768;2023-04-23T12:50:37;5.13;;;3.72;;
72813;SDS011;60945;48.516;-2.768;2023-04-23T12:53:03;5.03;;;4.10;;
72813;SDS011;60945;48.516;-2.768;2023-04-23T12:55:29;6.63;;;4.30;;
72813;SDS011;60945;48.516;-2.768;2023-04-23T12:57:54;6.97;;;4.70;;
72813;SDS011;60945;48.516;-2.768;2023-04-23T13:00:20;5.43;;;3.95;;
72813;SDS011;60945;48.516;-2.768;2023-04-23T13:02:46;6.50;;;3.72;;
72813;SDS011;60945;48.516;-2.768;2023-04-23T13:05:12;5.13;;;3.88;;
72813;SDS011;60945;48.516;-2.768;2023-04-23T13:07:38;5.82;;;3.42;;
72813;SDS011;60945;48.516;-2.768;2023-04-23T13:10:03;4.80;;;3.60;;
72813;SDS011;60945;48.516;-2.768;2023-04-23T13:12:30;5.95;;;4.40;;
72813;SDS011;60945;48.516;-2.768;2023-04-23T13:14:57;5.00;;;3.60;;
72813;SDS011;60945;48.516;-2.768;2023-04-23T13:17:23;4.47;;;3.67;;
72813;SDS011;60945;48.516;-2.768;2023-04-23T13:19:50;5.40;;;3.55;;
72813;SDS011;60945;48.516;-2.768;2023-04-23T13:22:20;5.15;;;3.75;;
72813;SDS011;60945;48.516;-2.768;2023-04-23T13:24:46;4.55;;;3.67;;
72813;SDS011;60945;48.516;-2.768;2023-04-23T13:27:12;4.82;;;3.10;;
72813;SDS011;60945;48.516;-2.768;2023-04-23T13:29:38;4.47;;;3.53;;
72813;SDS011;60945;48.516;-2.768;2023-04-23T13:32:04;6.43;;;3.50;;
72813;SDS011;60945;48.516;-2.768;2023-04-23T13:34:30;4.72;;;3.88;;
72813;SDS011;60945;48.516;-2.768;2023-04-23T13:36:56;6.72;;;4.13;;
72813;SDS011;60945;48.516;-2.768;2023-04-23T13:39:22;4.82;;;3.50;;
72813;SDS011;60945;48.516;-2.768;2023-04-23T13:41:48;7.90;;;3.80;;
72813;SDS011;60945;48.516;-2.768;2023-04-23T13:44:14;4.53;;;3.63;;
72813;SDS011;60945;48.516;-2.768;2023-04-23T13:46:40;4.95;;;3.78;;
72813;SDS011;60945;48.516;-2.768;2023-04-23T13:49:06;3.92;;;3.47;;
72813;SDS011;60945;48.516;-2.768;2023-04-23T13:51:32;5.55;;;3.47;;
72813;SDS011;60945;48.516;-2.768;2023-04-23T13:53:58;4.10;;;3.20;;
72813;SDS011;60945;48.516;-2.768;2023-04-23T13:56:24;6.07;;;3.90;;
72813;SDS011;60945;48.516;-2.768;2023-04-23T13:58:52;5.80;;;3.60;;
72813;SDS011;60945;48.516;-2.768;2023-04-23T14:01:19;4.60;;;3.30;;
72813;SDS011;60945;48.516;-2.768;2023-04-23T14:03:45;4.22;;;3.20;;
72813;SDS011;60945;48.516;-2.768;2023-04-23T14:06:12;4.45;;;3.03;;
72813;SDS011;60945;48.516;-2.768;2023-04-23T14:08:40;6.35;;;3.42;;
72813;SDS011;60945;48.516;-2.768;2023-04-23T14:11:06;4.15;;;2.97;;
72813;SDS011;60945;48.516;-2.768;2023-04-23T14:13:31;5.07;;;3.42;;
72813;SDS011;60945;48.516;-2.768;2023-04-23T14:15:57;4.22;;;3.30;;
72813;SDS011;60945;48.516;-2.768;2023-04-23T14:18:23;7.32;;;3.33;;
72813;SDS011;60945;48.516;-2.768;2023-04-23T14:20:49;4.88;;;3.05;;
72813;SDS011;60945;48.516;-2.768;2023-04-23T14:25:46;4.70;;;3.15;;
72813;SDS011;60945;48.516;-2.768;2023-04-23T14:30:47;6.85;;;3.50;;
72813;SDS011;60945;48.516;-2.768;2023-04-23T14:33:13;4.72;;;3.10;;
72813;SDS011;60945;48.516;-2.768;2023-04-23T14:35:38;4.13;;;3.20;;
72813;SDS011;60945;48.516;-2.768;2023-04-23T14:38:04;4.05;;;3.08;;
72813;SDS011;60945;48.516;-2.768;2023-04-23T14:40:30;4.60;;;3.38;;
72813;SDS011;60945;48.516;-2.768;2023-04-23T14:42:55;5.80;;;3.50;;
72813;SDS011;60945;48.516;-2.768;2023-04-23T14:45:21;8.88;;;3.65;;
72813;SDS011;60945;48.516;-2.768;2023-04-23T14:47:47;8.07;;;3.70;;
72813;SDS011;60945;48.516;-2.768;2023-04-23T14:50:14;5.30;;;3.58;;
72813;SDS011;60945;48.516;-2.768;2023-04-23T14:52:41;4.43;;;3.10;;
72813;SDS011;60945;48.516;-2.768;2023-04-23T14:55:11;5.60;;;3.08;;
72813;SDS011;60945;48.516;-2.768;2023-04-23T14:57:36;5.85;;;3.30;;